Home > Products > Valid Products > MTR

000
SAUS44 KSHV 260811
MTRBKB
SPECI KBKB 260810Z AUTO VRB03KT 1 3/4SM BR OVC002 21/19 A2970 RMK
AO2 T02110189





000
SAUS44 KSHV 260757
MTRAQV
METAR KAQV 260756Z AUTO VRB03KT 9SM CLR 20/18 A2971 RMK AO2 SLP057
T02000183





000
SAUS44 KSHV 260755
MTRBKB
METAR KBKB 260754Z AUTO VRB03KT 5SM BR BKN003 21/19 A2970 RMK AO2
SLP083 T02110189





000
SAUS44 KSHV 260738
MTRBKB
SPECI KBKB 260737Z AUTO 00000KT 5SM BR SCT004 21/18 A2971 RMK AO2
T02060183





000
SAUS44 KSHV 260657
MTRAQV
METAR KAQV 260656Z AUTO VRB03KT 10SM CLR 21/19 A2971 RMK AO2 SLP059
T02060189





000
SAUS44 KSHV 260657
MTRAQV
METAR KAQV 260656Z AUTO VRB03KT 10SM CLR 21/19 A2971 RMK AO2 SLP059
T02060189





000
SAUS44 KSHV 260655
MTRBKB
METAR KBKB 260654Z AUTO 00000KT 8SM CLR 21/18 A2971 RMK AO2 SLP086
T02060183





000
SAUS44 KSHV 260655
MTRBKB
METAR KBKB 260654Z AUTO 00000KT 8SM CLR 21/18 A2971 RMK AO2 SLP086
T02060183





000
SAUS44 KSHV 260557
MTRAQV
METAR KAQV 260556Z AUTO VRB04KT 10SM CLR 21/19 A2972 RMK AO2 SLP063
T02060189 10272 20206 402940206 50005





000
SAUS44 KSHV 260557
MTRAQV
METAR KAQV 260556Z AUTO VRB04KT 10SM CLR 21/19 A2972 RMK AO2 SLP063
T02060189 10272 20206 402940206 50005





000
SAUS44 KSHV 260555
MTRBKB
METAR KBKB 260554Z AUTO 00000KT 10SM CLR 21/19 A2972 RMK AO2 SLP091
T02110189 10267 20211 403000211 50005





000
SAUS44 KSHV 260555
MTRBKB
METAR KBKB 260554Z AUTO 00000KT 10SM CLR 21/19 A2972 RMK AO2 SLP091
T02110189 10267 20211 403000211 50005





000
SAUS44 KSHV 260457
MTRAQV
METAR KAQV 260456Z AUTO 19004KT 10SM CLR 22/19 A2973 RMK AO2 SLP063
T02170194





000
SAUS44 KSHV 260456
MTRBKB
METAR KBKB 260454Z AUTO 00000KT 10SM CLR 22/19 A2973 RMK AO2 SLP091
T02170189





000
SAUS44 KSHV 260456
MTRBKB
METAR KBKB 260454Z AUTO 00000KT 10SM CLR 22/19 A2973 RMK AO2 SLP091
T02170189





000
SAUS44 KSHV 260358
MTRAQV
METAR KAQV 260356Z AUTO VRB05KT 10SM CLR 22/19 A2972 RMK AO2 SLP062
T02220194





000
SAUS44 KSHV 260356
MTRBKB
METAR KBKB 260354Z AUTO VRB03KT 10SM CLR 22/19 A2972 RMK AO2 SLP089
T02220189





000
SAUS44 KSHV 260258
MTRAQV
METAR KAQV 260256Z AUTO VRB04KT 10SM CLR 23/20 A2971 RMK AO2 SLP058
T02280200 53014





000
SAUS44 KSHV 260258
MTRAQV
METAR KAQV 260256Z AUTO VRB04KT 10SM CLR 23/20 A2971 RMK AO2 SLP058
T02280200 53014





000
SAUS44 KSHV 260255
MTRBKB
METAR KBKB 260254Z AUTO 20003KT 10SM CLR 23/19 A2971 RMK AO2 SLP086
T02330194 53013





000
SAUS44 KSHV 260255
MTRBKB
METAR KBKB 260254Z AUTO 20003KT 10SM CLR 23/19 A2971 RMK AO2 SLP086
T02330194 53013





000
SAUS44 KSHV 260157
MTRAQV
METAR KAQV 260156Z AUTO 19004KT 10SM CLR 23/20 A2970 RMK AO2 SLP053
T02330200





000
SAUS44 KSHV 260157
MTRAQV
METAR KAQV 260156Z AUTO 19004KT 10SM CLR 23/20 A2970 RMK AO2 SLP053
T02330200





000
SAUS44 KSHV 260156
MTRBKB
METAR KBKB 260154Z AUTO VRB03KT 10SM CLR 23/19 A2969 RMK AO2 SLP081
T02330194





000
SAUS44 KSHV 260058
MTRAQV
METAR KAQV 260056Z AUTO 19003KT 10SM CLR 24/20 A2968 RMK AO2 SLP046
T02440200





000
SAUS44 KSHV 260055
MTRBKB
METAR KBKB 260054Z AUTO 00000KT 10SM CLR 24/19 A2968 RMK AO2 SLP074
T02440194





000
SAUS44 KSHV 260055
MTRBKB
METAR KBKB 260054Z AUTO 00000KT 10SM CLR 24/19 A2968 RMK AO2 SLP074
T02440194





000
SAUS44 KSHV 252357
MTRAQV
METAR KAQV 252356Z AUTO VRB05KT 10SM CLR 27/19 A2967 RMK AO2 SLP043
T02720194 10294 20261 58002





000
SAUS44 KSHV 252357
MTRAQV
METAR KAQV 252356Z AUTO VRB05KT 10SM CLR 27/19 A2967 RMK AO2 SLP043
T02720194 10294 20261 58002





000
SAUS44 KSHV 252355
MTRBKB
METAR KBKB 252354Z AUTO VRB05KT 10SM CLR 27/19 A2967 RMK AO2 SLP071
T02670194 10300 20244 56006





000
SAUS44 KSHV 252355
MTRBKB
METAR KBKB 252354Z AUTO VRB05KT 10SM CLR 27/19 A2967 RMK AO2 SLP071
T02670194 10300 20244 56006





000
SAUS44 KSHV 252258
MTRAQV
METAR KAQV 252256Z AUTO VRB06KT 10SM CLR 28/18 A2967 RMK AO2 SLP043
T02830178





000
SAUS44 KSHV 252255
MTRBKB
METAR KBKB 252254Z AUTO 22004KT 10SM CLR 29/19 A2967 RMK AO2 SLP073
T02890189





000
SAUS44 KSHV 252255
MTRBKB
METAR KBKB 252254Z AUTO 22004KT 10SM CLR 29/19 A2967 RMK AO2 SLP073
T02890189





000
SAUS44 KSHV 252159 COR
MTRBKB
METAR KBKB 252154Z AUTO 20007G15KT 130V240 10SM CLR 29/18 A2967 RMK
AO2 SLP072 T02890178





000
SAUS44 KSHV 252157
MTRAQV
METAR KAQV 252156Z AUTO VRB05KT 10SM CLR 29/19 A2968 RMK AO2 SLP046
T02940189





000
SAUS44 KSHV 252155
MTRBKB
METAR KBKB 252154Z AUTO 20007G15KT 130V240 10SM CLR 29/18 A2967 RMK
AO2 SLP072 T02890178





000
SAUS44 KSHV 252057
MTRAQV
METAR KAQV 252056Z AUTO 22007KT 170V270 10SM CLR 29/18 A2968 RMK AO2
SLP046 T02940178 58017





000
SAUS44 KSHV 252055
MTRBKB
METAR KBKB 252054Z AUTO 00000KT 10SM CLR 29/18 A2969 RMK AO2 SLP078
T02940178 58014





000
SAUS44 KSHV 251957
MTRAQV
METAR KAQV 251956Z AUTO 20007KT 160V240 10SM CLR 29/18 A2970 RMK AO2
SLP054 T02940183





000
SAUS44 KSHV 251955
MTRBKB
METAR KBKB 251954Z AUTO 21007KT 170V240 10SM CLR 29/19 A2971 RMK AO2
SLP084 T02940189





000
SAUS44 KSHV 251955
MTRBKB
METAR KBKB 251954Z AUTO 21007KT 170V240 10SM CLR 29/19 A2971 RMK AO2
SLP084 T02940189





000
SAUS44 KSHV 251857
MTRAQV
METAR KAQV 251856Z AUTO 19008KT 160V240 10SM CLR 28/18 A2970 RMK AO2
SLP055 T02830183





000
SAUS44 KSHV 251857
MTRAQV
METAR KAQV 251856Z AUTO 19008KT 160V240 10SM CLR 28/18 A2970 RMK AO2
SLP055 T02830183





000
SAUS44 KSHV 251855
MTRBKB
METAR KBKB 251854Z AUTO VRB03KT 10SM CLR 28/20 A2972 RMK AO2 SLP087
T02830200





000
SAUS44 KSHV 251855
MTRBKB
METAR KBKB 251854Z AUTO VRB03KT 10SM CLR 28/20 A2972 RMK AO2 SLP087
T02830200





000
SAUS44 KSHV 251757
MTRAQV
METAR KAQV 251756Z AUTO 16004KT 10SM CLR 27/20 A2973 RMK AO2 SLP063
60023 T02670200 10267 20206 56013





000
SAUS44 KSHV 251756
MTRBKB
METAR KBKB 251754Z AUTO 19004KT 10SM CLR 24/20 A2973 RMK AO2 SLP092
60006 T02440200 10244 20228 56017





000
SAUS44 KSHV 251756
MTRBKB
METAR KBKB 251754Z AUTO 19004KT 10SM CLR 24/20 A2973 RMK AO2 SLP092
60006 T02440200 10244 20228 56017





000
SAUS44 KSHV 251658
MTRAQV
METAR KAQV 251656Z AUTO 00000KT 10SM CLR 25/20 A2973 RMK AO2 RAE32
SLP064 P0000 T02500200





000
SAUS44 KSHV 251656
MTRBKB
METAR KBKB 251654Z AUTO 00000KT 9SM FEW090 FEW120 23/21 A2974 RMK
AO2 RAE49 SLP095 P0001 T02330206





000
SAUS44 KSHV 251601 COR
MTRAQV
METAR KAQV 251556Z AUTO 18006KT 7SM -RA FEW080 SCT100 BKN120 23/21
A2973 RMK AO2 RAB49 TSE1457 PRESFR SLP066 P0000 T02280206





000
SAUS44 KSHV 251559 COR
MTRAQV
METAR KAQV 251556Z AUTO 18006KT 7SM -RA FEW080 SCT100 BKN120 23/21
A2973 RMK AO2 RAB49 TSE1457 PRESFR SLP066 P0000 T02280206





000
SAUS44 KSHV 251558 COR
MTRAQV
METAR KAQV 251556Z AUTO 18006KT 7SM -RA FEW080 SCT100 BKN120 23/21
A2973 RMK AO2 RAB49 TSE1457 PRESFR SLP066 P0000 T02280206





000
SAUS44 KSHV 251557
MTRAQV
METAR KAQV 251556Z AUTO 18006KT 7SM -RA FEW080 SCT100 BKN120 23/21
A2973 RMK AO2 RAB49 TSE1457 PRESFR SLP066 P0000 T02280206





000
SAUS44 KSHV 251555
MTRBKB
METAR KBKB 251554Z AUTO 00000KT 5SM -RA OVC110 23/21 A2973 RMK AO2
TSB16E33 PRESFR SLP095 P0002 T02330206





000
SAUS44 KSHV 251555
MTRBKB
METAR KBKB 251554Z AUTO 00000KT 5SM -RA OVC110 23/21 A2973 RMK AO2
TSB16E33 PRESFR SLP095 P0002 T02330206





000
SAUS44 KSHV 251540
MTRBKB
SPECI KBKB 251539Z AUTO 21005KT 6SM -RA BR FEW070 SCT100 BKN120
23/21 A2976 RMK AO2 TSB16E33 P0001 T02330211





000
SAUS44 KSHV 251523
MTRBKB
SPECI KBKB 251522Z AUTO VRB03KT 3SM -TSRA BR FEW011 SCT055 OVC100
24/22 A2976 RMK AO2 TSB16 P0001 T02390217





000
SAUS44 KSHV 251506
MTRBKB
SPECI KBKB 251504Z AUTO 00000KT 3SM -RA FEW014 BKN070 OVC110 24/22
A2977 RMK AO2 P0001 T02440217





000
SAUS44 KSHV 251504
MTRAQV
SPECI KAQV 251503Z AUTO 18004KT 10SM FEW036 FEW100 21/19 A2976 RMK
AO2 TSE1457 T02110194





000
SAUS44 KSHV 251458
MTRAQV
METAR KAQV 251456Z AUTO 20004KT 10SM TS FEW038 FEW050 21/19 A2977
RMK AO2 RAE41 SLP076 P0023 60023 T02110194 50001





000
SAUS44 KSHV 251458
MTRAQV
METAR KAQV 251456Z AUTO 20004KT 10SM TS FEW038 FEW050 21/19 A2977
RMK AO2 RAE41 SLP076 P0023 60023 T02110194 50001





000
SAUS44 KSHV 251456
MTRBKB
METAR KBKB 251454Z AUTO 00000KT 2SM -RA FEW017 SCT060 BKN090 24/22
A2978 RMK AO2 RAE1357B40 SLP109 P0002 60003 T02440217 53016





000
SAUS44 KSHV 251435
MTRAQV
SPECI KAQV 251434Z AUTO 17005KT 3SM -TSRA BR FEW013 BKN040 OVC070
21/19 A2978 RMK AO2 P0023 T02060194





000
SAUS44 KSHV 251435
MTRAQV
SPECI KAQV 251434Z AUTO 17005KT 3SM -TSRA BR FEW013 BKN040 OVC070
21/19 A2978 RMK AO2 P0023 T02060194





000
SAUS44 KSHV 251427
MTRAQV
SPECI KAQV 251426Z AUTO 00000KT 1SM +TSRA BR SCT012 BKN042 OVC075
21/19 A2979 RMK AO2 VIS 1/2V1 3/4 P0022 T02060189





000
SAUS44 KSHV 251427
MTRAQV
SPECI KAQV 251426Z AUTO 00000KT 1SM +TSRA BR SCT012 BKN042 OVC075
21/19 A2979 RMK AO2 VIS 1/2V1 3/4 P0022 T02060189





000
SAUS44 KSHV 251418
MTRAQV
SPECI KAQV 251417Z AUTO VRB05G21KT 3/4SM +TSRA BR SCT008 BKN041
OVC065 21/19 A2982 RMK AO2 P0014 T02110189





000
SAUS44 KSHV 251412
MTRAQV
SPECI KAQV 251411Z AUTO 28011G21KT 220V350 1 1/4SM +TSRA BR SCT008
BKN018 OVC060 23/21 A2983 RMK AO2 PRESRR P0008 T02280211





000
SAUS44 KSHV 251412
MTRAQV
SPECI KAQV 251411Z AUTO 28011G21KT 220V350 1 1/4SM +TSRA BR SCT008
BKN018 OVC060 23/21 A2983 RMK AO2 PRESRR P0008 T02280211





000
SAUS44 KSHV 251403
MTRAQV
SPECI KAQV 251402Z AUTO VRB05KT 2SM TSRA BR BKN006 BKN018 OVC070
24/22 A2978 RMK AO2 PRESRR P0002 T02390222





000
SAUS44 KSHV 251358 COR
MTRBKB
METAR KBKB 251354Z AUTO VRB04KT 10SM -RA FEW050 SCT100 BKN110 23/19
A2976 RMK AO2 RAB04 SLP102 P0001 T02330194





000
SAUS44 KSHV 251357
MTRAQV
METAR KAQV 251356Z AUTO 25004KT 3SM -TSRA BR SCT009 BKN060 OVC085
24/22 A2977 RMK AO2 RAB39 TSB29B32 SLP078 P0000 T02390222





000
SAUS44 KSHV 251357
MTRAQV
METAR KAQV 251356Z AUTO 25004KT 3SM -TSRA BR SCT009 BKN060 OVC085
24/22 A2977 RMK AO2 RAB39 TSB29B32 SLP078 P0000 T02390222





000
SAUS44 KSHV 251356 COR
MTRBKB
METAR KBKB 251354Z AUTO VRB04KT 10SM -RA FEW050 SCT100 BKN110 23/19
A2976 RMK AO2 RAB04 SLP102 P0001 T02330194





000
SAUS44 KSHV 251336
MTRAQV
SPECI KAQV 251335Z AUTO 19005KT 4SM TS BR FEW007 FEW070 BKN110 24/22
A2975 RMK AO2 TSB29B32 T02390222





000
SAUS44 KSHV 251310
MTRAQV
SPECI KAQV 251309Z AUTO VRB04KT 4SM BR SCT004 SCT014 OVC110 24/22
A2975 RMK AO2 T02390222





000
SAUS44 KSHV 251304
MTRBKB
SPECI KBKB 251303Z AUTO 21003KT 3SM BR SCT005 SCT095 BKN120 24/22
A2975 RMK AO2 T02440222





000
SAUS44 KSHV 251304
MTRBKB
SPECI KBKB 251303Z AUTO 21003KT 3SM BR SCT005 SCT095 BKN120 24/22
A2975 RMK AO2 T02440222





000
SAUS44 KSHV 251257
MTRAQV
METAR KAQV 251256Z AUTO VRB04KT 3SM BR BKN004 BKN017 BKN110 24/22
A2976 RMK AO2 RAE05 SLP076 P0000 T02390222





000
SAUS44 KSHV 251255
MTRBKB
METAR KBKB 251254Z AUTO 00000KT 3SM BR BKN005 24/22 A2975 RMK AO2
RAB1155E04 CIG 004V009 SLP098 P0000 T02440222





000
SAUS44 KSHV 251255
MTRAQV
SPECI KAQV 251254Z AUTO 19005KT 3SM BR BKN004 BKN014 BKN110 24/22
A2976 RMK AO2 RAE05 P0000





000
SAUS44 KSHV 251245
MTRBKB
SPECI KBKB 251243Z AUTO VRB03KT 3SM BR OVC004 24/22 A2974 RMK AO2
RAB1155E04 CIG 003V009 P0000 T02440222





000
SAUS44 KSHV 251245
MTRBKB
SPECI KBKB 251243Z AUTO VRB03KT 3SM BR OVC004 24/22 A2974 RMK AO2
RAB1155E04 CIG 003V009 P0000 T02440222





000
SAUS44 KSHV 251244
MTRAQV
SPECI KAQV 251243Z AUTO 18005KT 2 1/2SM BR BKN004 OVC015 24/23 A2975
RMK AO2 RAE05 P0000 T02390228





000
SAUS44 KSHV 251244
MTRAQV
SPECI KAQV 251243Z AUTO 18005KT 2 1/2SM BR BKN004 OVC015 24/23 A2975
RMK AO2 RAE05 P0000 T02390228





000
SAUS44 KSHV 251219
MTRAQV
SPECI KAQV 251217Z AUTO 27004KT 2 1/2SM BR OVC006 24/22 A2973 RMK
AO2 RAE05 P0000 T02390222





000
SAUS44 KSHV 251219
MTRAQV
SPECI KAQV 251217Z AUTO 27004KT 2 1/2SM BR OVC006 24/22 A2973 RMK
AO2 RAE05 P0000 T02390222





000
SAUS44 KSHV 251219
MTRBKB
SPECI KBKB 251218Z AUTO VRB04KT 2 1/2SM BR OVC003 24/22 A2974 RMK
AO2 RAB1155E04 P0000 T02440222





000
SAUS44 KSHV 251158
MTRAQV
METAR KAQV 251156Z AUTO 00000KT 3SM -RA BR OVC006 24/22 A2973 RMK
AO2 RAB55 SLP065 P0000 60001 70018 T02390222 10239 20233 55005





000
SAUS44 KSHV 251158
MTRAQV
METAR KAQV 251156Z AUTO 00000KT 3SM -RA BR OVC006 24/22 A2973 RMK
AO2 RAB55 SLP065 P0000 60001 70018 T02390222 10239 20233 55005





000
SAUS44 KSHV 251157 COR
MTRBKB
METAR KBKB 251154Z AUTO VRB04KT 3SM BR BKN003 OVC110 24/22 A2973 RMK
AO2 RAE13B31E40 SLP092 P0001 60001 70009 T02390222 10244 20239 55007





000
SAUS44 KSHV 251157 COR
MTRBKB
METAR KBKB 251154Z AUTO VRB04KT 3SM BR BKN003 OVC110 24/22 A2973 RMK
AO2 RAE13B31E40 SLP092 P0001 60001 70009 T02390222 10244 20239 55007





000
SAUS44 KSHV 251156 COR
MTRBKB
METAR KBKB 251154Z AUTO VRB04KT 3SM BR BKN003 OVC110 24/22 A2973 RMK
AO2 RAE13B31E40 SLP092 P0001 60001 70009 T02390222 10244 20239 55007





000
SAUS44 KSHV 251156 COR
MTRBKB
METAR KBKB 251154Z AUTO VRB04KT 3SM BR BKN003 OVC110 24/22 A2973 RMK
AO2 RAE13B31E40 SLP092 P0001 60001 70009 T02390222 10244 20239 55007





000
SAUS44 KSHV 251145
MTRBKB
SPECI KBKB 251144Z AUTO VRB03KT 3SM BR BKN003 BKN110 24/22 A2972 RMK
AO2 RAE13B31E40 P0001 T02390222





000
SAUS44 KSHV 251138
MTRBKB
SPECI KBKB 251137Z AUTO VRB04KT 2 1/2SM -RA BR BKN003 BKN110 24/22
A2971 RMK AO2 RAE13B31 P0001 T02390217





000
SAUS44 KSHV 251128
MTRBKB
SPECI KBKB 251127Z AUTO 18003KT 2 1/2SM BR SCT004 BKN022 24/22 A2970
RMK AO2 RAE13 P0001 T02390217





000
SAUS44 KSHV 251128
MTRBKB
SPECI KBKB 251127Z AUTO 18003KT 2 1/2SM BR SCT004 BKN022 24/22 A2970
RMK AO2 RAE13 P0001 T02390217





000
SAUS44 KSHV 251114
MTRBKB
SPECI KBKB 251113Z AUTO VRB03KT 3SM BR BKN004 OVC037 24/22 A2968 RMK
AO2 RAE13 P0001 T02390217





000
SAUS44 KSHV 251111
MTRAQV
SPECI KAQV 251109Z AUTO 27004KT 5SM BR OVC005 24/22 A2973 RMK AO2
CIG 004V009 T02390222





000
SAUS44 KSHV 251111
MTRAQV
SPECI KAQV 251109Z AUTO 27004KT 5SM BR OVC005 24/22 A2973 RMK AO2
CIG 004V009 T02390222





000
SAUS44 KSHV 251057 COR
MTRBKB
METAR KBKB 251054Z AUTO VRB04KT 4SM -RA BR OVC006 24/22 A2971 RMK
AO2 RAB06E17B38 CIG 004V009 PRESFR SLP084 P0000 T02440222





000
SAUS44 KSHV 251057
MTRAQV
METAR KAQV 251056Z AUTO VRB03KT 4SM BR OVC004 24/22 A2972 RMK AO2
SLP061 T02390222





000
SAUS44 KSHV 251056 COR
MTRBKB
METAR KBKB 251054Z AUTO VRB04KT 4SM -RA BR OVC006 24/22 A2971 RMK
AO2 RAB06E17B38 CIG 004V009 PRESFR SLP084 P0000 T02440222





000
SAUS44 KSHV 250957
MTRAQV
METAR KAQV 250956Z AUTO VRB04KT 5SM BR OVC005 24/22 A2974 RMK AO2
SLP068 T02390222





000
SAUS44 KSHV 250956
MTRBKB
METAR KBKB 250954Z AUTO VRB04KT 6SM HZ OVC007 24/22 A2974 RMK AO2
SLP097 T02440217





000
SAUS44 KSHV 250934
MTRBKB
SPECI KBKB 250933Z AUTO VRB04KT 6SM HZ BKN007 BKN110 24/22 A2974 RMK
AO2 T02440217





000
SAUS44 KSHV 250934
MTRBKB
SPECI KBKB 250933Z AUTO VRB04KT 6SM HZ BKN007 BKN110 24/22 A2974 RMK
AO2 T02440217





000
SAUS44 KSHV 250857
MTRAQV
METAR KAQV 250856Z AUTO 19004KT 4SM BR OVC007 23/22 A2975 RMK AO2
RAE08 CIG 004V011 SLP069 P0001 60001 T02330222 58005





000
SAUS44 KSHV 250857
MTRBKB
SPECI KBKB 250856Z AUTO 22004KT 6SM HZ SCT007 BKN030 24/22 A2975 RMK
AO2 T02440217





000
SAUS44 KSHV 250855
MTRBKB
METAR KBKB 250854Z AUTO 22004KT 6SM HZ SCT007 BKN010 BKN026 24/22
A2975 RMK AO2 RAB22E35 SLP099 P0000 60000 T02440217 56019





000
SAUS44 KSHV 250810
MTRBKB
SPECI KBKB 250808Z AUTO 00000KT 6SM HZ SCT007 24/22 A2976 RMK AO2
T02440217





000
SAUS44 KSHV 250810
MTRBKB
SPECI KBKB 250808Z AUTO 00000KT 6SM HZ SCT007 24/22 A2976 RMK AO2
T02440217





000
SAUS44 KSHV 250757
MTRAQV
METAR KAQV 250756Z AUTO 16004KT 4SM -RA BR BKN006 BKN080 OVC110
23/22 A2975 RMK AO2 RAB41 SLP071 P0000 T02330222





000
SAUS44 KSHV 250757
MTRAQV
METAR KAQV 250756Z AUTO 16004KT 4SM -RA BR BKN006 BKN080 OVC110
23/22 A2975 RMK AO2 RAB41 SLP071 P0000 T02330222





000
SAUS44 KSHV 250755
MTRBKB
METAR KBKB 250754Z AUTO VRB04KT 6SM HZ CLR 24/22 A2977 RMK AO2
SLP104 T02440217





000
SAUS44 KSHV 250749
MTRAQV
SPECI KAQV 250748Z AUTO 17004KT 4SM -RA BR SCT006 BKN110 23/22 A2976
RMK AO2 RAB41 P0000 T02330222





000
SAUS44 KSHV 250736
MTRAQV
SPECI KAQV 250735Z AUTO 00000KT 4SM BR BKN006 BKN023 OVC055 23/22
A2977 RMK AO2 T02330222





000
SAUS44 KSHV 250657
MTRAQV
METAR KAQV 250656Z AUTO 17003KT 4SM BR FEW005 BKN026 OVC075 23/22
A2976 RMK AO2 RAE02 SLP075 P0000 T02330222





000
SAUS44 KSHV 250657
MTRAQV
METAR KAQV 250656Z AUTO 17003KT 4SM BR FEW005 BKN026 OVC075 23/22
A2976 RMK AO2 RAE02 SLP075 P0000 T02330222





000
SAUS44 KSHV 250655
MTRBKB
METAR KBKB 250654Z AUTO VRB03KT 6SM HZ SCT028 BKN035 24/22 A2978 RMK
AO2 RAB10E22 SLP109 P0000 T02440217





000
SAUS44 KSHV 250654
MTRAQV
SPECI KAQV 250653Z AUTO VRB03KT 4SM BR FEW005 BKN026 OVC075 23/22
A2976 RMK AO2 RAE02 P0000





000
SAUS44 KSHV 250640
MTRAQV
SPECI KAQV 250639Z AUTO 00000KT 5SM BR SCT025 OVC075 24/22 A2977 RMK
AO2 RAE02 P0000 T02390222





000
SAUS44 KSHV 250640
MTRAQV
SPECI KAQV 250639Z AUTO 00000KT 5SM BR SCT025 OVC075 24/22 A2977 RMK
AO2 RAE02 P0000 T02390222





000
SAUS44 KSHV 250558
MTRAQV
METAR KAQV 250556Z AUTO 16005KT 5SM -RA BR BKN029 BKN050 OVC090
24/22 A2978 RMK AO2 RAB30 SLP081 P0001 60001 T02390222 10250 20239
402890178 50004





000
SAUS44 KSHV 250558
MTRAQV
METAR KAQV 250556Z AUTO 16005KT 5SM -RA BR BKN029 BKN050 OVC090
24/22 A2978 RMK AO2 RAB30 SLP081 P0001 60001 T02390222 10250 20239
402890178 50004





000
SAUS44 KSHV 250556
MTRBKB
METAR KBKB 250554Z AUTO 00000KT 8SM FEW019 BKN045 BKN050 24/22 A2981
RMK AO2 SLP119 T02440217 10256 20244 403000194 53028





000
SAUS44 KSHV 250556
MTRBKB
METAR KBKB 250554Z AUTO 00000KT 8SM FEW019 BKN045 BKN050 24/22 A2981
RMK AO2 SLP119 T02440217 10256 20244 403000194 53028





000
SAUS44 KSHV 250550
MTRAQV
SPECI KAQV 250548Z AUTO 00000KT 5SM -RA BR BKN029 BKN037 OVC095
24/22 A2978 RMK AO2 RAB30 P0000 T02390222





000
SAUS44 KSHV 250537
MTRBKB
SPECI KBKB 250536Z AUTO 00000KT 8SM FEW016 BKN030 OVC042 25/22 A2981
RMK AO2 T02500217





000
SAUS44 KSHV 250537
MTRBKB
SPECI KBKB 250536Z AUTO 00000KT 8SM FEW016 BKN030 OVC042 25/22 A2981
RMK AO2 T02500217





000
SAUS44 KSHV 250524
MTRBKB
SPECI KBKB 250523Z AUTO 00000KT 9SM FEW012 BKN022 OVC037 25/22 A2981
RMK AO2 T02500217





000
SAUS44 KSHV 250517
MTRBKB
SPECI KBKB 250516Z AUTO 25003KT 9SM SCT010 BKN014 OVC037 25/22 A2980
RMK AO2 T02500222





000
SAUS44 KSHV 250517
MTRBKB
SPECI KBKB 250516Z AUTO 25003KT 9SM SCT010 BKN014 OVC037 25/22 A2980
RMK AO2 T02500222





000
SAUS44 KSHV 250457
MTRAQV
METAR KAQV 250456Z AUTO 00000KT 8SM BKN033 OVC041 25/22 A2980 RMK
AO2 SLP089 T02500222





000
SAUS44 KSHV 250457
MTRAQV
METAR KAQV 250456Z AUTO 00000KT 8SM BKN033 OVC041 25/22 A2980 RMK
AO2 SLP089 T02500222





000
SAUS44 KSHV 250455
MTRBKB
METAR KBKB 250454Z AUTO 00000KT 9SM BKN009 OVC013 25/22 A2978 RMK
AO2 CIG 006V011 SLP109 T02500222





000
SAUS44 KSHV 250443
MTRAQV
SPECI KAQV 250442Z AUTO 00000KT 8SM FEW015 BKN030 OVC039 25/22 A2979
RMK AO2 T02500222





000
SAUS44 KSHV 250423
MTRAQV
SPECI KAQV 250422Z AUTO 25003KT 8SM SCT013 BKN020 OVC030 25/22 A2978
RMK AO2 T02500222





000
SAUS44 KSHV 250357
MTRAQV
METAR KAQV 250356Z AUTO VRB04KT 8SM BKN012 OVC017 25/22 A2977 RMK
AO2 SLP077 T02500222





000
SAUS44 KSHV 250357
MTRAQV
METAR KAQV 250356Z AUTO VRB04KT 8SM BKN012 OVC017 25/22 A2977 RMK
AO2 SLP077 T02500222





000
SAUS44 KSHV 250355
MTRBKB
METAR KBKB 250354Z AUTO VRB06KT 8SM OVC005 24/22 A2974 RMK AO2
SLP095 T02440217





000
SAUS44 KSHV 250257
MTRAQV
METAR KAQV 250256Z AUTO 17007KT 8SM OVC010 24/22 A2972 RMK AO2
SLP061 T02440222 55001





000
SAUS44 KSHV 250257
MTRAQV
METAR KAQV 250256Z AUTO 17007KT 8SM OVC010 24/22 A2972 RMK AO2
SLP061 T02440222 55001





000
SAUS44 KSHV 250255
MTRBKB
METAR KBKB 250254Z AUTO 16006KT 9SM OVC007 24/22 A2972 RMK AO2
SLP091 T02440217 55007





000
SAUS44 KSHV 250255
MTRBKB
METAR KBKB 250254Z AUTO 16006KT 9SM OVC007 24/22 A2972 RMK AO2
SLP091 T02440217 55007





000
SAUS44 KSHV 250242
MTRAQV
SPECI KAQV 250241Z AUTO 17009G16KT 8SM OVC011 24/22 A2971 RMK AO2
T02440222





000
SAUS44 KSHV 250242
MTRAQV
SPECI KAQV 250241Z AUTO 17009G16KT 8SM OVC011 24/22 A2971 RMK AO2
T02440222





000
SAUS44 KSHV 250157
MTRAQV
METAR KAQV 250156Z AUTO VRB05G15KT 9SM OVC009 24/22 A2970 RMK AO2
CIG 008V013 SLP056 T02440222





000
SAUS44 KSHV 250157
MTRAQV
METAR KAQV 250156Z AUTO VRB05G15KT 9SM OVC009 24/22 A2970 RMK AO2
CIG 008V013 SLP056 T02440222





000
SAUS44 KSHV 250156
MTRBKB
METAR KBKB 250154Z AUTO VRB05KT 10SM OVC008 24/21 A2971 RMK AO2 CIG
007V012 SLP088 T02440211





000
SAUS44 KSHV 250130
MTRBKB
SPECI KBKB 250129Z AUTO VRB04KT 10SM OVC009 25/21 A2972 RMK AO2
T02500211





000
SAUS44 KSHV 250057
MTRAQV
METAR KAQV 250056Z AUTO 17006KT 10SM BKN014 OVC029 24/22 A2972 RMK
AO2 SLP062 T02440217





000
SAUS44 KSHV 250057
MTRAQV
METAR KAQV 250056Z AUTO 17006KT 10SM BKN014 OVC029 24/22 A2972 RMK
AO2 SLP062 T02440217





000
SAUS44 KSHV 250055
MTRBKB
METAR KBKB 250054Z AUTO VRB04KT 10SM OVC012 25/21 A2973 RMK AO2
SLP094 T02500211





000
SAUS44 KSHV 250055
MTRBKB
METAR KBKB 250054Z AUTO VRB04KT 10SM OVC012 25/21 A2973 RMK AO2
SLP094 T02500211





000
SAUS44 KSHV 250024
MTRBKB
SPECI KBKB 250023Z AUTO VRB03KT 10SM OVC013 26/21 A2973 RMK AO2
T02560211





000
SAUS44 KSHV 242357
MTRAQV
METAR KAQV 242356Z AUTO 18006G16KT 10SM SCT018 BKN025 OVC033 25/21
A2974 RMK AO2 SLP069 60001 T02500211 10289 20206 58014





000
SAUS44 KSHV 242357
MTRAQV
METAR KAQV 242356Z AUTO 18006G16KT 10SM SCT018 BKN025 OVC033 25/21
A2974 RMK AO2 SLP069 60001 T02500211 10289 20206 58014





000
SAUS44 KSHV 242355
MTRBKB
METAR KBKB 242354Z AUTO 14007KT 110V170 10SM BKN017 OVC023 26/21
A2975 RMK AO2 SLP099 60001 T02560206 10300 20222 58013





000
SAUS44 KSHV 242355
MTRBKB
METAR KBKB 242354Z AUTO 14007KT 110V170 10SM BKN017 OVC023 26/21
A2975 RMK AO2 SLP099 60001 T02560206 10300 20222 58013





000
SAUS44 KSHV 242257
MTRAQV
METAR KAQV 242256Z AUTO VRB06KT 10SM BKN029 OVC037 27/21 A2976 RMK
AO2 SLP075 T02670206





000
SAUS44 KSHV 242256
MTRBKB
METAR KBKB 242254Z AUTO VRB03KT 10SM BKN021 OVC033 27/21 A2978 RMK
AO2 SLP108 T02670211





000
SAUS44 KSHV 242248
MTRAQV
SPECI KAQV 242247Z AUTO VRB06KT 10SM BKN029 OVC038 27/21 A2977 RMK
AO2 T02670206





000
SAUS44 KSHV 242248
MTRAQV
SPECI KAQV 242247Z AUTO VRB06KT 10SM BKN029 OVC038 27/21 A2977 RMK
AO2 T02670206





000
SAUS44 KSHV 242230
MTRBKB
SPECI KBKB 242229Z AUTO VRB04KT 10SM BKN024 BKN029 OVC037 27/21
A2978 RMK AO2 T02720211





000
SAUS44 KSHV 242230
MTRBKB
SPECI KBKB 242229Z AUTO VRB04KT 10SM BKN024 BKN029 OVC037 27/21
A2978 RMK AO2 T02720211





000
SAUS44 KSHV 242157
MTRAQV
METAR KAQV 242156Z AUTO 17005KT 10SM OVC042 28/21 A2978 RMK AO2
SLP080 T02830206





000
SAUS44 KSHV 242155
MTRBKB
METAR KBKB 242154Z AUTO VRB04KT 10SM BKN039 OVC047 28/20 A2978 RMK
AO2 SLP110 T02780200





000
SAUS44 KSHV 242155
MTRBKB
METAR KBKB 242154Z AUTO VRB04KT 10SM BKN039 OVC047 28/20 A2978 RMK
AO2 SLP110 T02780200





000
SAUS44 KSHV 242058
MTRAQV
METAR KAQV 242056Z AUTO 16008G16KT 10SM CLR 28/21 A2979 RMK AO2
SLP083 60001 T02830211 56044





000
SAUS44 KSHV 242058
MTRAQV
METAR KAQV 242056Z AUTO 16008G16KT 10SM CLR 28/21 A2979 RMK AO2
SLP083 60001 T02830211 56044





000
SAUS44 KSHV 242055
MTRBKB
METAR KBKB 242054Z AUTO 15008KT 110V170 10SM CLR 29/21 A2978 RMK AO2
SLP111 60001 T02940206 58020





000
SAUS44 KSHV 242055
MTRBKB
METAR KBKB 242054Z AUTO 15008KT 110V170 10SM CLR 29/21 A2978 RMK AO2
SLP111 60001 T02940206 58020





000
SAUS44 KSHV 241957
MTRAQV
METAR KAQV 241956Z AUTO 15007G16KT 10SM CLR 28/22 A2981 RMK AO2
SLP092 T02780217





000
SAUS44 KSHV 241955
MTRBKB
METAR KBKB 241954Z AUTO VRB06KT 10SM FEW013 28/22 A2981 RMK AO2
SLP119 T02780222





000
SAUS44 KSHV 241858
MTRAQV
METAR KAQV 241856Z AUTO 15007KT 10SM SCT007 SCT100 24/22 A2985 RMK
AO2 RAE28 SLP104 P0001 T02440222





000
SAUS44 KSHV 241855
MTRBKB
METAR KBKB 241854Z AUTO VRB05KT 7SM FEW004 SCT038 SCT085 24/22 A2985
RMK AO2 RAE34 TSE45 SLP133 P0001 T02440217





000
SAUS44 KSHV 241853
MTRBKB
SPECI KBKB 241852Z AUTO VRB05KT 6SM BR FEW004 SCT085 SCT110 24/22
A2984 RMK AO2 RAE34 TSE45 P0001





000
SAUS44 KSHV 241846
MTRBKB
SPECI KBKB 241845Z AUTO VRB05KT 3SM BR FEW028 SCT085 BKN110 24/22
A2986 RMK AO2 RAE34 TSE45 P0001 T02390217





000
SAUS44 KSHV 241846
MTRBKB
SPECI KBKB 241845Z AUTO VRB05KT 3SM BR FEW028 SCT085 BKN110 24/22
A2986 RMK AO2 RAE34 TSE45 P0001 T02390217





000
SAUS44 KSHV 241837
MTRBKB
SPECI KBKB 241835Z AUTO 00000KT 5SM TS BR FEW029 SCT070 BKN090 23/21
A2987 RMK AO2 RAE34 P0001 T02280211





000
SAUS44 KSHV 241830 COR
MTRBKB
SPECI KBKB 241827Z AUTO VRB03KT 2SM -TSRA BR FEW004 FEW095 BKN110
22/21 A2985 RMK AO2 P0001 T02220206





000
SAUS44 KSHV 241830
MTRAQV
SPECI KAQV 241829Z AUTO 00000KT 4SM BR SCT003 22/21 A2986 RMK AO2
RAE28 P0001 T02220211





000
SAUS44 KSHV 241829 COR
MTRBKB
SPECI KBKB 241827Z AUTO VRB03KT 2SM -TSRA BR FEW004 FEW095 BKN110
22/21 A2985 RMK AO2 P0001 T02220206





000
SAUS44 KSHV 241822
MTRBKB
SPECI KBKB 241821Z AUTO VRB05KT 3/4SM -TSRA BR FEW008 SCT090 BKN110
22/20 A2984 RMK AO2 PRESFR P0001 T02220200





000
SAUS44 KSHV 241822
MTRBKB
SPECI KBKB 241821Z AUTO VRB05KT 3/4SM -TSRA BR FEW008 SCT090 BKN110
22/20 A2984 RMK AO2 PRESFR P0001 T02220200





000
SAUS44 KSHV 241818
MTRAQV
SPECI KAQV 241817Z AUTO 18004KT 3SM -RA BR BKN002 BKN038 OVC100
21/21 A2987 RMK AO2 P0001 T02110206





000
SAUS44 KSHV 241818
MTRAQV
SPECI KAQV 241817Z AUTO 18004KT 3SM -RA BR BKN002 BKN038 OVC100
21/21 A2987 RMK AO2 P0001 T02110206





000
SAUS44 KSHV 241812
MTRBKB
SPECI KBKB 241811Z AUTO 12005KT 1 1/4SM -TSRA BR SCT012 SCT032
OVC110 22/20 A2994 RMK AO2 P0000 T02220200





000
SAUS44 KSHV 241812
MTRBKB
SPECI KBKB 241811Z AUTO 12005KT 1 1/4SM -TSRA BR SCT012 SCT032
OVC110 22/20 A2994 RMK AO2 P0000 T02220200





000
SAUS44 KSHV 241809
MTRAQV
SPECI KAQV 241808Z AUTO VRB05G14KT 1SM -RA BR BKN002 BKN037 OVC095
21/20 A2983 RMK AO2 PRESFR P0001 T02110200





000
SAUS44 KSHV 241809
MTRAQV
SPECI KAQV 241808Z AUTO VRB05G14KT 1SM -RA BR BKN002 BKN037 OVC095
21/20 A2983 RMK AO2 PRESFR P0001 T02110200





000
SAUS44 KSHV 241805
MTRAQV
SPECI KAQV 241803Z AUTO 14007KT 3/4SM -RA BR SCT002 BKN037 OVC100
21/20 A2984 RMK AO2 PRESFR P0001 T02060200





000
SAUS44 KSHV 241805
MTRAQV
SPECI KAQV 241803Z AUTO 14007KT 3/4SM -RA BR SCT002 BKN037 OVC100
21/20 A2984 RMK AO2 PRESFR P0001 T02060200





000
SAUS44 KSHV 241757
MTRAQV
METAR KAQV 241756Z AUTO 14004KT 1SM RA BR BKN002 OVC040 21/20 A2992
RMK AO2 TSB15E30 SLP129 P0013 60015 T02060200 10211 20189 58006





000
SAUS44 KSHV 241757
MTRAQV
METAR KAQV 241756Z AUTO 14004KT 1SM RA BR BKN002 OVC040 21/20 A2992
RMK AO2 TSB15E30 SLP129 P0013 60015 T02060200 10211 20189 58006





000
SAUS44 KSHV 241755
MTRBKB
METAR KBKB 241754Z AUTO 00000KT 1 1/4SM -TSRA BR FEW003 OVC012 22/20
A2993 RMK AO2 RAB07 TSB10E31B43 SLP160 P0007 60007 T02220200 10222
20200 50005





000
SAUS44 KSHV 241755
MTRBKB
METAR KBKB 241754Z AUTO 00000KT 1 1/4SM -TSRA BR FEW003 OVC012 22/20
A2993 RMK AO2 RAB07 TSB10E31B43 SLP160 P0007 60007 T02220200 10222
20200 50005





000
SAUS44 KSHV 241750
MTRBKB
SPECI KBKB 241749Z AUTO 00000KT 1 1/2SM -TSRA BR SCT003 OVC010 22/20
A2993 RMK AO2 RAB07 TSB10E31B43 P0006





000
SAUS44 KSHV 241743
MTRBKB
SPECI KBKB 241742Z AUTO 00000KT 1 1/2SM -RA BR SCT003 OVC010 22/20
A2993 RMK AO2 RAB07 TSB10E31 P0005 T02220200





000
SAUS44 KSHV 241737
MTRAQV
SPECI KAQV 241736Z AUTO 00000KT 1 1/2SM -RA BR BKN002 OVC012 21/19
A2992 RMK AO2 TSB15E30 P0009 T02060194





000
SAUS44 KSHV 241733
MTRBKB
SPECI KBKB 241732Z AUTO 02003KT 3/4SM -RA BR OVC003 22/20 A2990 RMK
AO2 RAB07 TSB10E31 PRESFR P0004 T02220200





000
SAUS44 KSHV 241724
MTRBKB
SPECI KBKB 241723Z AUTO 00000KT 1 1/4SM TSRA BR OVC002 22/20 A2992
RMK AO2 RAB07 TSB10 P0002 T02220200





000
SAUS44 KSHV 241722
MTRAQV
SPECI KAQV 241721Z AUTO 00000KT 1SM TSRA BR BKN003 OVC020 21/19
A2992 RMK AO2 TSB15 P0006 T02060194





000
SAUS44 KSHV 241722
MTRAQV
SPECI KAQV 241721Z AUTO 00000KT 1SM TSRA BR BKN003 OVC020 21/19
A2992 RMK AO2 TSB15 P0006 T02060194





000
SAUS44 KSHV 241711
MTRBKB
SPECI KBKB 241710Z AUTO 00000KT 2SM -TSRA BR OVC002 22/20 A2993 RMK
AO2 RAB07 TSB10 P0000 T02220200





000
SAUS44 KSHV 241711
MTRBKB
SPECI KBKB 241710Z AUTO 00000KT 2SM -TSRA BR OVC002 22/20 A2993 RMK
AO2 RAB07 TSB10 P0000 T02220200





000
SAUS44 KSHV 241709
MTRAQV
SPECI KAQV 241708Z AUTO 17003KT 1 3/4SM -RA BR OVC003 21/19 A2994
RMK AO2 P0002 T02060194





000
SAUS44 KSHV 241709
MTRAQV
SPECI KAQV 241708Z AUTO 17003KT 1 3/4SM -RA BR OVC003 21/19 A2994
RMK AO2 P0002 T02060194





000
SAUS44 KSHV 241658
MTRAQV
METAR KAQV 241656Z AUTO 00000KT 2SM -RA BR OVC003 21/19 A2994 RMK
AO2 SLP138 P0002 T02060194





000
SAUS44 KSHV 241655
MTRBKB
METAR KBKB 241654Z AUTO 00000KT 1 1/2SM BR OVC002 22/20 A2992 RMK
AO2 RAE00 SLP157 P0000 T02220200





000
SAUS44 KSHV 241655
MTRBKB
METAR KBKB 241654Z AUTO 00000KT 1 1/2SM BR OVC002 22/20 A2992 RMK
AO2 RAE00 SLP157 P0000 T02220200





000
SAUS44 KSHV 241604
MTRBKB
SPECI KBKB 241603Z AUTO 00000KT 1 3/4SM BR OVC003 22/19 A2992 RMK
AO2 RAE00 P0000 T02170194





000
SAUS44 KSHV 241557
MTRAQV
METAR KAQV 241556Z AUTO 22003KT 5SM -RA BR OVC003 21/19 A2997 RMK
AO2 RAB1458E07B37 PRESRR SLP147 P0000 T02060189





000
SAUS44 KSHV 241555
MTRBKB
METAR KBKB 241554Z AUTO VRB03KT 3SM -RA BR OVC003 22/19 A2991 RMK
AO2 RAB42 SLP155 P0000 T02170194





000
SAUS44 KSHV 241555
MTRBKB
METAR KBKB 241554Z AUTO VRB03KT 3SM -RA BR OVC003 22/19 A2991 RMK
AO2 RAB42 SLP155 P0000 T02170194





000
SAUS44 KSHV 241515 COR
MTRAQV
SPECI KAQV 241510Z AUTO VRB04KT 3SM BR OVC002 20/19 A2993 RMK AO2
RAB1458E07 P0000 T02000189





000
SAUS44 KSHV 241513
MTRBKB
SPECI KBKB 241512Z AUTO 00000KT 4SM BR OVC003 22/19 A2991 RMK AO2
T02170194





000
SAUS44 KSHV 241513
MTRBKB
SPECI KBKB 241512Z AUTO 00000KT 4SM BR OVC003 22/19 A2991 RMK AO2
T02170194





000
SAUS44 KSHV 241457
MTRAQV
METAR KAQV 241456Z AUTO 08005KT 2SM BR OVC002 19/18 A2993 RMK AO2
RAB19E28 SLP135 P0000 60000 T01940183 50005





000
SAUS44 KSHV 241457
MTRAQV
METAR KAQV 241456Z AUTO 08005KT 2SM BR OVC002 19/18 A2993 RMK AO2
RAB19E28 SLP135 P0000 60000 T01940183 50005





000
SAUS44 KSHV 241456
MTRBKB
METAR KBKB 241454Z AUTO VRB03KT 2SM HZ OVC002 22/19 A2993 RMK AO2
SLP160 T02170189 50001





000
SAUS44 KSHV 241449
MTRBKB
SPECI KBKB 241447Z AUTO 00000KT 2SM BR OVC002 21/19 A2994 RMK AO2
T02110194





000
SAUS44 KSHV 241449
MTRBKB
SPECI KBKB 241447Z AUTO 00000KT 2SM BR OVC002 21/19 A2994 RMK AO2
T02110194





000
SAUS44 KSHV 241427
MTRAQV
SPECI KAQV 241426Z AUTO 00000KT 1 1/4SM -RA BR OVC002 19/18 A2995
RMK AO2 RAB19 P0000 T01940183





000
SAUS44 KSHV 241427
MTRAQV
SPECI KAQV 241426Z AUTO 00000KT 1 1/4SM -RA BR OVC002 19/18 A2995
RMK AO2 RAB19 P0000 T01940183





000
SAUS44 KSHV 241420
MTRBKB
SPECI KBKB 241418Z AUTO VRB03KT 1SM BR OVC002 21/19 A2994 RMK AO2
T02110189





000
SAUS44 KSHV 241358
MTRAQV
METAR KAQV 241356Z AUTO 09003KT 3/4SM BR OVC003 19/18 A2995 RMK AO2
SLP138 T01890178





000
SAUS44 KSHV 241358
MTRAQV
METAR KAQV 241356Z AUTO 09003KT 3/4SM BR OVC003 19/18 A2995 RMK AO2
SLP138 T01890178





000
SAUS44 KSHV 241355
MTRBKB
METAR KBKB 241354Z AUTO 00000KT 3/4SM BR OVC003 21/19 A2994 RMK AO2
SLP165 T02060189





000
SAUS44 KSHV 241355
MTRBKB
METAR KBKB 241354Z AUTO 00000KT 3/4SM BR OVC003 21/19 A2994 RMK AO2
SLP165 T02060189





000
SAUS44 KSHV 241352 COR
MTRBKB
SPECI KBKB 241349Z AUTO 00000KT 3/4SM BR OVC003 21/19 A2994 RMK AO2





000
SAUS44 KSHV 241351 COR
MTRBKB
SPECI KBKB 241349Z AUTO 00000KT 3/4SM BR OVC003 21/19 A2994 RMK AO2





000
SAUS44 KSHV 241343
MTRAQV
SPECI KAQV 241342Z AUTO 00000KT 1 1/4SM BR OVC003 19/18 A2997 RMK
AO2 T01890178





000
SAUS44 KSHV 241335
MTRAQV
SPECI KAQV 241333Z AUTO 00000KT 2SM BR OVC003 19/18 A2996 RMK AO2
T01890178





000
SAUS44 KSHV 241335
MTRAQV
SPECI KAQV 241333Z AUTO 00000KT 2SM BR OVC003 19/18 A2996 RMK AO2
T01890178





000
SAUS44 KSHV 241331
MTRBKB
SPECI KBKB 241329Z AUTO 00000KT 1 1/4SM BR OVC004 21/18 A2994 RMK
AO2 T02060183





000
SAUS44 KSHV 241324
MTRBKB
SPECI KBKB 241322Z AUTO 12003KT 2SM BR OVC004 21/18 A2994 RMK AO2
T02060183





000
SAUS44 KSHV 241324
MTRBKB
SPECI KBKB 241322Z AUTO 12003KT 2SM BR OVC004 21/18 A2994 RMK AO2
T02060183





000
SAUS44 KSHV 241258
MTRAQV
METAR KAQV 241256Z AUTO 00000KT 4SM BR OVC004 19/17 A2993 RMK AO2
RAE1158 SLP134 P0000 T01890172





000
SAUS44 KSHV 241258
MTRAQV
METAR KAQV 241256Z AUTO 00000KT 4SM BR OVC004 19/17 A2993 RMK AO2
RAE1158 SLP134 P0000 T01890172





000
SAUS44 KSHV 241255
MTRBKB
METAR KBKB 241254Z AUTO 00000KT 8SM OVC006 21/18 A2992 RMK AO2
SLP159 T02060178





000
SAUS44 KSHV 241250
MTRAQV
SPECI KAQV 241249Z AUTO 00000KT 5SM BR OVC004 19/17 A2993 RMK AO2
RAE1158 P0000 T01890172





000
SAUS44 KSHV 241250
MTRAQV
SPECI KAQV 241249Z AUTO 00000KT 5SM BR OVC004 19/17 A2993 RMK AO2
RAE1158 P0000 T01890172





000
SAUS44 KSHV 241157
MTRAQV
METAR KAQV 241156Z AUTO VRB03KT 9SM -RA OVC006 18/17 A2992 RMK AO2
RAB49 CIG 005V009 SLP129 P0000 60000 T01830172 10189 20178 51003





000
SAUS44 KSHV 241157
MTRAQV
METAR KAQV 241156Z AUTO VRB03KT 9SM -RA OVC006 18/17 A2992 RMK AO2
RAB49 CIG 005V009 SLP129 P0000 60000 T01830172 10189 20178 51003





000
SAUS44 KSHV 241155
MTRBKB
METAR KBKB 241154Z AUTO 00000KT 10SM BKN007 20/17 A2992 RMK AO2
SLP156 70001 T02000172 10206 20194 53008





000
SAUS44 KSHV 241138
MTRBKB
SPECI KBKB 241137Z AUTO 00000KT 10SM BKN008 20/17 A2992 RMK AO2
T02000172





000
SAUS44 KSHV 241120
MTRBKB
SPECI KBKB 241118Z AUTO VRB03KT 10SM FEW009 20/17 A2991 RMK AO2
T02000172





000
SAUS44 KSHV 241120
MTRBKB
SPECI KBKB 241118Z AUTO VRB03KT 10SM FEW009 20/17 A2991 RMK AO2
T02000172





000
SAUS44 KSHV 241057
MTRAQV
METAR KAQV 241056Z AUTO VRB03KT 9SM OVC009 18/17 A2991 RMK AO2
SLP125 T01830167





000
SAUS44 KSHV 241057
MTRAQV
METAR KAQV 241056Z AUTO VRB03KT 9SM OVC009 18/17 A2991 RMK AO2
SLP125 T01830167





000
SAUS44 KSHV 241056
MTRBKB
METAR KBKB 241054Z AUTO 00000KT 10SM BKN009 20/17 A2990 RMK AO2
SLP151 T02000172





000
SAUS44 KSHV 241056
MTRBKB
METAR KBKB 241054Z AUTO 00000KT 10SM BKN009 20/17 A2990 RMK AO2
SLP151 T02000172





000
SAUS44 KSHV 241016
MTRAQV
SPECI KAQV 241015Z AUTO VRB03KT 7SM FEW005 BKN011 18/17 A2992 RMK
AO2 T01830167





000
SAUS44 KSHV 240958
MTRBKB
SPECI KBKB 240957Z AUTO 00000KT 10SM BKN009 20/17 A2991 RMK AO2
T02000172





000
SAUS44 KSHV 240957
MTRAQV
METAR KAQV 240956Z AUTO 00000KT 7SM SCT005 SCT013 18/17 A2992 RMK
AO2 SLP130 T01830167





000
SAUS44 KSHV 240955
MTRBKB
METAR KBKB 240954Z AUTO 00000KT 10SM SCT011 19/17 A2991 RMK AO2
SLP153 T01940172





000
SAUS44 KSHV 240949
MTRAQV
SPECI KAQV 240948Z AUTO 00000KT 8SM SCT005 18/17 A2992 RMK AO2
T01830167





000
SAUS44 KSHV 240939
MTRAQV
SPECI KAQV 240937Z AUTO 00000KT 8SM BKN005 BKN014 18/17 A2992 RMK
AO2 T01830167





000
SAUS44 KSHV 240857
MTRAQV
METAR KAQV 240856Z AUTO 00000KT 7SM OVC004 18/17 A2991 RMK AO2
PRESRR SLP126 T01830167 55010





000
SAUS44 KSHV 240857
MTRAQV
METAR KAQV 240856Z AUTO 00000KT 7SM OVC004 18/17 A2991 RMK AO2
PRESRR SLP126 T01830167 55010





000
SAUS44 KSHV 240855
MTRBKB
METAR KBKB 240854Z AUTO 00000KT 10SM CLR 19/17 A2989 RMK AO2 SLP148
T01940172 55008





000
SAUS44 KSHV 240855
MTRBKB
METAR KBKB 240854Z AUTO 00000KT 10SM CLR 19/17 A2989 RMK AO2 SLP148
T01940172 55008





000
SAUS44 KSHV 240834
MTRAQV
SPECI KAQV 240833Z AUTO VRB03KT 7SM BKN004 18/17 A2989 RMK AO2
T01830167





000
SAUS44 KSHV 240821
MTRAQV
SPECI KAQV 240820Z AUTO VRB03KT 8SM FEW004 18/17 A2988 RMK AO2
T01830167





000
SAUS44 KSHV 240821
MTRAQV
SPECI KAQV 240820Z AUTO VRB03KT 8SM FEW004 18/17 A2988 RMK AO2
T01830167





000
SAUS44 KSHV 240757
MTRAQV
METAR KAQV 240756Z AUTO 07003KT 7SM CLR 18/17 A2988 RMK AO2 SLP117
T01780167





000
SAUS44 KSHV 240757
MTRAQV
METAR KAQV 240756Z AUTO 07003KT 7SM CLR 18/17 A2988 RMK AO2 SLP117
T01780167





000
SAUS44 KSHV 240755
MTRBKB
METAR KBKB 240754Z AUTO 00000KT 10SM CLR 19/17 A2987 RMK AO2 SLP140
T01940172





000
SAUS44 KSHV 240755
MTRBKB
METAR KBKB 240754Z AUTO 00000KT 10SM CLR 19/17 A2987 RMK AO2 SLP140
T01940172





000
SAUS44 KSHV 240657
MTRAQV
METAR KAQV 240656Z AUTO 00000KT 8SM FEW006 18/17 A2990 RMK AO2
SLP123 T01830172





000
SAUS44 KSHV 240657
MTRAQV
METAR KAQV 240656Z AUTO 00000KT 8SM FEW006 18/17 A2990 RMK AO2
SLP123 T01830172





000
SAUS44 KSHV 240655
MTRBKB
METAR KBKB 240654Z AUTO 00000KT 10SM CLR 20/17 A2990 RMK AO2 SLP151
T02000172





000
SAUS44 KSHV 240655
MTRBKB
METAR KBKB 240654Z AUTO 00000KT 10SM CLR 20/17 A2990 RMK AO2 SLP151
T02000172





000
SAUS44 KSHV 240609
MTRAQV
SPECI KAQV 240607Z AUTO 03004KT 10SM BKN007 19/17 A2994 RMK AO2
T01890172





000
SAUS44 KSHV 240557
MTRAQV
METAR KAQV 240556Z AUTO 02004KT 10SM SCT007 19/17 A2994 RMK AO2
SLP136 T01890172 10250 20189 402890189 51005





000
SAUS44 KSHV 240557
MTRAQV
METAR KAQV 240556Z AUTO 02004KT 10SM SCT007 19/17 A2994 RMK AO2
SLP136 T01890172 10250 20189 402890189 51005





000
SAUS44 KSHV 240556
MTRBKB
METAR KBKB 240554Z AUTO VRB03KT 10SM CLR 21/18 A2992 RMK AO2 SLP156
T02060178 10261 20206 403060200 58001





000
SAUS44 KSHV 240556
MTRBKB
METAR KBKB 240554Z AUTO VRB03KT 10SM CLR 21/18 A2992 RMK AO2 SLP156
T02060178 10261 20206 403060200 58001





000
SAUS44 KSHV 240457
MTRAQV
METAR KAQV 240456Z AUTO VRB04KT 10SM CLR 19/18 A2994 RMK AO2 SLP134
T01940178





000
SAUS44 KSHV 240457
MTRAQV
METAR KAQV 240456Z AUTO VRB04KT 10SM CLR 19/18 A2994 RMK AO2 SLP134
T01940178





000
SAUS44 KSHV 240455
MTRBKB
METAR KBKB 240454Z AUTO 00000KT 10SM CLR 21/18 A2993 RMK AO2 SLP160
T02110183





000
SAUS44 KSHV 240357
MTRAQV
METAR KAQV 240356Z AUTO VRB03KT 10SM FEW009 20/18 A2993 RMK AO2
SLP134 T02000183





000
SAUS44 KSHV 240357
MTRAQV
METAR KAQV 240356Z AUTO VRB03KT 10SM FEW009 20/18 A2993 RMK AO2
SLP134 T02000183





000
SAUS44 KSHV 240355
MTRBKB
METAR KBKB 240354Z AUTO 00000KT 10SM CLR 22/18 A2991 RMK AO2 SLP156
T02220183





000
SAUS44 KSHV 240355
MTRBKB
METAR KBKB 240354Z AUTO 00000KT 10SM CLR 22/18 A2991 RMK AO2 SLP156
T02220183





000
SAUS44 KSHV 240320
MTRAQV
SPECI KAQV 240319Z AUTO VRB03KT 10SM FEW009 21/18 A2994 RMK AO2
T02110183





000
SAUS44 KSHV 240320
MTRAQV
SPECI KAQV 240319Z AUTO VRB03KT 10SM FEW009 21/18 A2994 RMK AO2
T02110183





000
SAUS44 KSHV 240257
MTRAQV
METAR KAQV 240256Z AUTO 06003KT 10SM CLR 21/19 A2992 RMK AO2 SLP130
T02110189 50007





000
SAUS44 KSHV 240257
MTRAQV
METAR KAQV 240256Z AUTO 06003KT 10SM CLR 21/19 A2992 RMK AO2 SLP130
T02110189 50007





000
SAUS44 KSHV 240255
MTRBKB
METAR KBKB 240254Z AUTO VRB04KT 10SM CLR 23/19 A2992 RMK AO2 SLP157
T02280189 53012





000
SAUS44 KSHV 240157
MTRAQV
METAR KAQV 240156Z AUTO VRB05KT 10SM CLR 23/19 A2993 RMK AO2 SLP132
T02280194





000
SAUS44 KSHV 240155
MTRBKB
METAR KBKB 240154Z AUTO VRB03KT 10SM CLR 24/20 A2991 RMK AO2 SLP153
T02390200





000
SAUS44 KSHV 240057
MTRAQV
METAR KAQV 240056Z AUTO VRB05KT 10SM CLR 23/19 A2991 RMK AO2 SLP125
T02330194





000
SAUS44 KSHV 240055
MTRBKB
METAR KBKB 240054Z AUTO VRB03KT 10SM CLR 25/21 A2989 RMK AO2 SLP147
T02500206





000
SAUS44 KSHV 240055
MTRBKB
METAR KBKB 240054Z AUTO VRB03KT 10SM CLR 25/21 A2989 RMK AO2 SLP147
T02500206





000
SAUS44 KSHV 232357
MTRAQV
METAR KAQV 232356Z AUTO VRB06KT 10SM CLR 26/20 A2990 RMK AO2 SLP123
T02560200 10289 20256 50002





000
SAUS44 KSHV 232357
MTRAQV
METAR KAQV 232356Z AUTO VRB06KT 10SM CLR 26/20 A2990 RMK AO2 SLP123
T02560200 10289 20256 50002





000
SAUS44 KSHV 232355
MTRBKB
METAR KBKB 232354Z AUTO VRB03KT 10SM FEW050 26/21 A2988 RMK AO2
SLP145 T02610206 10306 20256 53001





000
SAUS44 KSHV 232355
MTRBKB
METAR KBKB 232354Z AUTO VRB03KT 10SM FEW050 26/21 A2988 RMK AO2
SLP145 T02610206 10306 20256 53001





000
SAUS44 KSHV 232257
MTRAQV
METAR KAQV 232256Z AUTO VRB04KT 10SM SCT025 BKN036 OVC060 26/20
A2991 RMK AO2 SLP124 T02610200





000
SAUS44 KSHV 232255
MTRBKB
METAR KBKB 232254Z AUTO 00000KT 10SM CLR 28/20 A2988 RMK AO2 SLP143
T02780200





000
SAUS44 KSHV 232255
MTRBKB
METAR KBKB 232254Z AUTO 00000KT 10SM CLR 28/20 A2988 RMK AO2 SLP143
T02780200





000
SAUS44 KSHV 232157
MTRAQV
METAR KAQV 232156Z AUTO 01004KT 10SM BKN034 BKN041 27/19 A2990 RMK
AO2 SLP122 T02720194





000
SAUS44 KSHV 232155
MTRBKB
METAR KBKB 232154Z AUTO VRB03KT 10SM FEW029 FEW041 SCT047 29/20
A2987 RMK AO2 SLP141 T02940200





000
SAUS44 KSHV 232057
MTRAQV
METAR KAQV 232056Z AUTO VRB03KT 10SM FEW027 BKN035 27/20 A2990 RMK
AO2 SLP122 T02720200 56011





000
SAUS44 KSHV 232057
MTRAQV
METAR KAQV 232056Z AUTO VRB03KT 10SM FEW027 BKN035 27/20 A2990 RMK
AO2 SLP122 T02720200 56011





000
SAUS44 KSHV 232055
MTRBKB
METAR KBKB 232054Z AUTO VRB04KT 10SM BKN034 BKN040 28/20 A2988 RMK
AO2 SLP143 T02830200 56014





000
SAUS44 KSHV 232055
MTRBKB
METAR KBKB 232054Z AUTO VRB04KT 10SM BKN034 BKN040 28/20 A2988 RMK
AO2 SLP143 T02830200 56014





000
SAUS44 KSHV 232027
MTRBKB
SPECI KBKB 232026Z AUTO VRB04KT 10SM FEW027 BKN034 28/20 A2988 RMK
AO2 T02830200





000
SAUS44 KSHV 232027
MTRBKB
SPECI KBKB 232026Z AUTO VRB04KT 10SM FEW027 BKN034 28/20 A2988 RMK
AO2 T02830200





000
SAUS44 KSHV 232025
MTRAQV
SPECI KAQV 232024Z AUTO 00000KT 10SM FEW027 BKN035 OVC080 27/19
A2990 RMK AO2 T02720194





000
SAUS44 KSHV 232019
MTRAQV
SPECI KAQV 232017Z AUTO 06003KT 10SM BKN027 BKN037 BKN080 27/19
A2990 RMK AO2 T02670194





000
SAUS44 KSHV 232019
MTRAQV
SPECI KAQV 232017Z AUTO 06003KT 10SM BKN027 BKN037 BKN080 27/19
A2990 RMK AO2 T02670194





000
SAUS44 KSHV 231957
MTRAQV
METAR KAQV 231956Z AUTO VRB04KT 10SM SCT037 SCT065 BKN080 28/19
A2991 RMK AO2 SLP124 T02780194





000
SAUS44 KSHV 231955
MTRBKB
METAR KBKB 231954Z AUTO VRB03KT 10SM BKN023 28/20 A2989 RMK AO2
SLP146 T02830200





000
SAUS44 KSHV 231955
MTRBKB
METAR KBKB 231954Z AUTO VRB03KT 10SM BKN023 28/20 A2989 RMK AO2
SLP146 T02830200





000
SAUS44 KSHV 231945
MTRBKB
SPECI KBKB 231944Z AUTO 00000KT 10SM BKN021 28/20 A2990 RMK AO2
T02780200





000
SAUS44 KSHV 231943
MTRAQV
SPECI KAQV 231941Z AUTO 07006KT 10SM FEW026 BKN039 OVC065 26/19
A2991 RMK AO2 T02610194





000
SAUS44 KSHV 231918
MTRBKB
SPECI KBKB 231917Z AUTO VRB05KT 10SM SCT021 28/20 A2990 RMK AO2
T02830200





000
SAUS44 KSHV 231913
MTRAQV
SPECI KAQV 231912Z AUTO 00000KT 10SM BKN026 BKN033 OVC060 27/19
A2992 RMK AO2 T02670194





000
SAUS44 KSHV 231858
MTRAQV
METAR KAQV 231856Z AUTO VRB05KT 10SM SCT023 BKN031 BKN060 28/19
A2992 RMK AO2 SLP128 T02780194





000
SAUS44 KSHV 231855
MTRBKB
METAR KBKB 231854Z AUTO VRB03KT 10SM OVC019 27/20 A2991 RMK AO2
SLP153 T02670200





000
SAUS44 KSHV 231855
MTRBKB
METAR KBKB 231854Z AUTO VRB03KT 10SM OVC019 27/20 A2991 RMK AO2
SLP153 T02670200





000
SAUS44 KSHV 231757
MTRAQV
METAR KAQV 231756Z AUTO 07004KT 10SM OVC023 26/19 A2993 RMK AO2
SLP133 T02610194 10267 20206 58008





000
SAUS44 KSHV 231755
MTRBKB
METAR KBKB 231754Z AUTO VRB04KT 10SM OVC015 26/19 A2992 RMK AO2
SLP158 60001 T02560194 10256 20222 55010





000
SAUS44 KSHV 231755
MTRBKB
METAR KBKB 231754Z AUTO VRB04KT 10SM OVC015 26/19 A2992 RMK AO2
SLP158 60001 T02560194 10256 20222 55010





000
SAUS44 KSHV 231752
MTRBKB
SPECI KBKB 231751Z AUTO VRB05KT 10SM OVC015 26/19 A2992 RMK AO2





000
SAUS44 KSHV 231716
MTRBKB
SPECI KBKB 231715Z AUTO 35003KT 10SM OVC011 25/19 A2994 RMK AO2
T02500194





000
SAUS44 KSHV 231710
MTRAQV
SPECI KAQV 231709Z AUTO VRB03KT 10SM SCT024 OVC029 26/19 A2994 RMK
AO2 T02610189





000
SAUS44 KSHV 231710
MTRAQV
SPECI KAQV 231709Z AUTO VRB03KT 10SM SCT024 OVC029 26/19 A2994 RMK
AO2 T02610189





000
SAUS44 KSHV 231657
MTRAQV
METAR KAQV 231656Z AUTO 00000KT 10SM FEW020 SCT027 BKN032 25/18
A2995 RMK AO2 SLP140 T02500183





000
SAUS44 KSHV 231657
MTRAQV
METAR KAQV 231656Z AUTO 00000KT 10SM FEW020 SCT027 BKN032 25/18
A2995 RMK AO2 SLP140 T02500183





000
SAUS44 KSHV 231656
MTRBKB
METAR KBKB 231654Z AUTO VRB04KT 9SM OVC009 23/20 A2994 RMK AO2
RAB35E53 CIG 006V010 SLP166 P0001 T02330200





000
SAUS44 KSHV 231656
MTRBKB
METAR KBKB 231654Z AUTO VRB04KT 9SM OVC009 23/20 A2994 RMK AO2
RAB35E53 CIG 006V010 SLP166 P0001 T02330200





000
SAUS44 KSHV 231625
MTRAQV
SPECI KAQV 231624Z AUTO VRB04KT 10SM SCT020 BKN043 BKN050 24/18
A2995 RMK AO2 T02440183





000
SAUS44 KSHV 231625
MTRAQV
SPECI KAQV 231624Z AUTO VRB04KT 10SM SCT020 BKN043 BKN050 24/18
A2995 RMK AO2 T02440183





000
SAUS44 KSHV 231614
MTRBKB
SPECI KBKB 231613Z AUTO VRB03KT 9SM BKN006 OVC012 23/19 A2996 RMK
AO2 T02280194





000
SAUS44 KSHV 231606
MTRBKB
SPECI KBKB 231605Z AUTO 04007KT 10SM SCT006 OVC012 23/19 A2996 RMK
AO2 T02280194





000
SAUS44 KSHV 231606
MTRBKB
SPECI KBKB 231605Z AUTO 04007KT 10SM SCT006 OVC012 23/19 A2996 RMK
AO2 T02280194





000
SAUS44 KSHV 231557
MTRAQV
METAR KAQV 231556Z AUTO 04003KT 10SM OVC020 23/18 A2997 RMK AO2
SLP145 T02280183





000
SAUS44 KSHV 231556
MTRBKB
METAR KBKB 231554Z AUTO 00000KT 10SM OVC012 25/20 A2995 RMK AO2
SLP168 T02500200





000
SAUS44 KSHV 231530
MTRAQV
SPECI KAQV 231529Z AUTO 02006KT 10SM SCT008 OVC019 23/19 A2996 RMK
AO2 T02280189





000
SAUS44 KSHV 231530
MTRAQV
SPECI KAQV 231529Z AUTO 02006KT 10SM SCT008 OVC019 23/19 A2996 RMK
AO2 T02280189





000
SAUS44 KSHV 231516
MTRBKB
SPECI KBKB 231515Z AUTO VRB03KT 10SM BKN010 OVC047 24/20 A2994 RMK
AO2 CIG 008V013 T02440200





000
SAUS44 KSHV 231457
MTRAQV
METAR KAQV 231456Z AUTO 02008KT 9SM BKN008 OVC012 22/19 A2996 RMK
AO2 CIG 007V011 SLP141 T02220194 53005





000
SAUS44 KSHV 231456
MTRBKB
METAR KBKB 231454Z AUTO 00000KT 10SM OVC008 24/20 A2994 RMK AO2 CIG
006V011 SLP163 T02390200 51012





000
SAUS44 KSHV 231446 COR
MTRAQV
SPECI KAQV 231444Z AUTO 01007KT 10SM BKN010 OVC023 23/20 A2995 RMK
AO2 CIG 007V013 T02330200





000
SAUS44 KSHV 231433
MTRAQV
SPECI KAQV 231430Z AUTO 03006KT 10SM BKN008 OVC042 23/20 A2994 RMK
AO2 CIG 006V011 T02330200





000
SAUS44 KSHV 231433
MTRAQV
SPECI KAQV 231430Z AUTO 03006KT 10SM BKN008 OVC042 23/20 A2994 RMK
AO2 CIG 006V011 T02330200





000
SAUS44 KSHV 231357
MTRAQV
METAR KAQV 231356Z AUTO 02003KT 9SM SCT005 OVC038 23/20 A2995 RMK
AO2 SLP138 T02280200





000
SAUS44 KSHV 231356
MTRBKB
METAR KBKB 231354Z AUTO 00000KT 10SM OVC005 23/20 A2993 RMK AO2 CIG
005V009 SLP161 T02330200





000
SAUS44 KSHV 231353
MTRAQV
SPECI KAQV 231351Z AUTO 01004KT 9SM SCT005 OVC038 22/20 A2995 RMK
AO2





000
SAUS44 KSHV 231353
MTRAQV
SPECI KAQV 231351Z AUTO 01004KT 9SM SCT005 OVC038 22/20 A2995 RMK
AO2





000
SAUS44 KSHV 231324
MTRAQV
SPECI KAQV 231323Z AUTO 00000KT 7SM BKN005 OVC009 22/20 A2994 RMK
AO2 CIG 003V008 T02170200





000
SAUS44 KSHV 231320
MTRBKB
SPECI KBKB 231319Z AUTO 00000KT 8SM OVC005 23/20 A2992 RMK AO2 CIG
002V007 T02280200





000
SAUS44 KSHV 231303
MTRBKB
SPECI KBKB 231302Z AUTO 00000KT 4SM BR OVC003 23/21 A2992 RMK AO2
T02280206





000
SAUS44 KSHV 231257
MTRAQV
METAR KAQV 231256Z AUTO 36003KT 3SM BR OVC002 21/20 A2994 RMK AO2
SLP136 T02110200





000
SAUS44 KSHV 231257
MTRAQV
METAR KAQV 231256Z AUTO 36003KT 3SM BR OVC002 21/20 A2994 RMK AO2
SLP136 T02110200





000
SAUS44 KSHV 231256
MTRBKB
METAR KBKB 231254Z AUTO 00000KT 2 1/2SM BR OVC003 23/21 A2992 RMK
AO2 SLP157 T02280206





000
SAUS44 KSHV 231256
MTRBKB
METAR KBKB 231254Z AUTO 00000KT 2 1/2SM BR OVC003 23/21 A2992 RMK
AO2 SLP157 T02280206





000
SAUS44 KSHV 231254
MTRAQV
SPECI KAQV 231252Z AUTO 01003KT 2 1/2SM BR OVC002 21/20 A2994 RMK
AO2





000
SAUS44 KSHV 231254
MTRAQV
SPECI KAQV 231252Z AUTO 01003KT 2 1/2SM BR OVC002 21/20 A2994 RMK
AO2





000
SAUS44 KSHV 231244
MTRBKB
SPECI KBKB 231243Z AUTO 00000KT 2 1/2SM BR OVC003 22/20 A2991 RMK
AO2 T02220200





000
SAUS44 KSHV 231244
MTRBKB
SPECI KBKB 231243Z AUTO 00000KT 2 1/2SM BR OVC003 22/20 A2991 RMK
AO2 T02220200





000
SAUS44 KSHV 231239
MTRAQV
SPECI KAQV 231238Z AUTO 00000KT 1SM BR OVC002 21/19 A2993 RMK AO2
T02110194





000
SAUS44 KSHV 231239
MTRAQV
SPECI KAQV 231238Z AUTO 00000KT 1SM BR OVC002 21/19 A2993 RMK AO2
T02110194





000
SAUS44 KSHV 231222
MTRAQV
SPECI KAQV 231220Z AUTO 00000KT 3/4SM BR OVC002 21/19 A2992 RMK AO2
T02060194





000
SAUS44 KSHV 231222
MTRAQV
SPECI KAQV 231220Z AUTO 00000KT 3/4SM BR OVC002 21/19 A2992 RMK AO2
T02060194





000
SAUS44 KSHV 231209
MTRBKB
SPECI KBKB 231207Z AUTO 00000KT 3SM BR BKN002 OVC007 22/20 A2991 RMK
AO2 T02220200





000
SAUS44 KSHV 231209
MTRBKB
SPECI KBKB 231207Z AUTO 00000KT 3SM BR BKN002 OVC007 22/20 A2991 RMK
AO2 T02220200





000
SAUS44 KSHV 231203
MTRAQV
SPECI KAQV 231202Z AUTO 01003KT 1 3/4SM BR BKN002 OVC008 21/19 A2992
RMK AO2 T02060194





000
SAUS44 KSHV 231203
MTRAQV
SPECI KAQV 231202Z AUTO 01003KT 1 3/4SM BR BKN002 OVC008 21/19 A2992
RMK AO2 T02060194





000
SAUS44 KSHV 231157
MTRAQV
METAR KAQV 231156Z AUTO 00000KT 3SM BR SCT002 OVC008 21/19 A2992 RMK
AO2 CIG 006V010 SLP129 T02060194 10211 20194 53012





000
SAUS44 KSHV 231157
MTRAQV
METAR KAQV 231156Z AUTO 00000KT 3SM BR SCT002 OVC008 21/19 A2992 RMK
AO2 CIG 006V010 SLP129 T02060194 10211 20194 53012





000
SAUS44 KSHV 231155
MTRBKB
METAR KBKB 231154Z AUTO 00000KT 2SM BR OVC002 22/20 A2990 RMK AO2
SLP152 T02220200 10222 20200 53005





000
SAUS44 KSHV 231155
MTRBKB
METAR KBKB 231154Z AUTO 00000KT 2SM BR OVC002 22/20 A2990 RMK AO2
SLP152 T02220200 10222 20200 53005





000
SAUS44 KSHV 231134
MTRAQV
SPECI KAQV 231133Z AUTO 36004KT 4SM BR SCT003 OVC010 21/19 A2992 RMK
AO2 T02060194





000
SAUS44 KSHV 231132
MTRBKB
SPECI KBKB 231131Z AUTO 00000KT 4SM BR OVC002 22/19 A2989 RMK AO2
T02170194





000
SAUS44 KSHV 231127
MTRAQV
SPECI KAQV 231126Z AUTO 00000KT 3SM BR BKN003 OVC010 21/19 A2992 RMK
AO2 T02060194





000
SAUS44 KSHV 231123
MTRBKB
SPECI KBKB 231122Z AUTO 00000KT 2 1/2SM BR OVC002 22/19 A2988 RMK
AO2 T02170194





000
SAUS44 KSHV 231123
MTRBKB
SPECI KBKB 231122Z AUTO 00000KT 2 1/2SM BR OVC002 22/19 A2988 RMK
AO2 T02170194





000
SAUS44 KSHV 231117
MTRAQV
SPECI KAQV 231116Z AUTO 00000KT 1 1/2SM BR OVC003 21/19 A2992 RMK
AO2 T02060194





000
SAUS44 KSHV 231057
MTRAQV
METAR KAQV 231056Z AUTO 00000KT 2 1/2SM BR OVC003 21/19 A2990 RMK
AO2 SLP122 T02060194





000
SAUS44 KSHV 231055
MTRBKB
METAR KBKB 231054Z AUTO 00000KT 6SM BR OVC004 22/19 A2988 RMK AO2
SLP142 T02170194





000
SAUS44 KSHV 231037
MTRAQV
SPECI KAQV 231036Z AUTO 00000KT 5SM BR OVC003 21/19 A2990 RMK AO2
T02060194





000
SAUS44 KSHV 231011
MTRBKB
SPECI KBKB 231010Z AUTO 00000KT 9SM OVC004 22/19 A2989 RMK AO2
T02170189





000
SAUS44 KSHV 231011
MTRBKB
SPECI KBKB 231010Z AUTO 00000KT 9SM OVC004 22/19 A2989 RMK AO2
T02170189





000
SAUS44 KSHV 230957
MTRAQV
METAR KAQV 230956Z AUTO 00000KT 7SM BKN006 21/19 A2990 RMK AO2
SLP120 T02060194





000
SAUS44 KSHV 230955
MTRBKB
METAR KBKB 230954Z AUTO 00000KT 9SM OVC005 22/19 A2989 RMK AO2
SLP146 T02170189





000
SAUS44 KSHV 230942
MTRAQV
SPECI KAQV 230941Z AUTO 16003KT 6SM BR SCT008 20/19 A2988 RMK AO2
T02000189





000
SAUS44 KSHV 230927
MTRAQV
SPECI KAQV 230926Z AUTO 00000KT 6SM BR BKN008 20/19 A2989 RMK AO2
T02000189





000
SAUS44 KSHV 230912
MTRAQV
SPECI KAQV 230910Z AUTO 00000KT 6SM BR SCT009 19/18 A2989 RMK AO2
T01940183





000
SAUS44 KSHV 230912
MTRAQV
SPECI KAQV 230910Z AUTO 00000KT 6SM BR SCT009 19/18 A2989 RMK AO2
T01940183





000
SAUS44 KSHV 230857
MTRAQV
METAR KAQV 230856Z AUTO 16003KT 6SM BR SCT010 20/18 A2988 RMK AO2
SLP116 T02000183 55005





000
SAUS44 KSHV 230855
MTRBKB
METAR KBKB 230854Z AUTO 00000KT 7SM BKN009 BKN016 OVC022 21/19 A2989
RMK AO2 SLP146 T02110189 53005





000
SAUS44 KSHV 230853
MTRBKB
SPECI KBKB 230852Z AUTO 00000KT 7SM BKN009 BKN016 OVC022 21/19 A2989
RMK AO2





000
SAUS44 KSHV 230853
MTRBKB
SPECI KBKB 230852Z AUTO 00000KT 7SM BKN009 BKN016 OVC022 21/19 A2989
RMK AO2





000
SAUS44 KSHV 230841
MTRBKB
SPECI KBKB 230840Z AUTO 00000KT 7SM FEW009 BKN014 OVC020 21/19 A2989
RMK AO2 T02110189





000
SAUS44 KSHV 230841
MTRBKB
SPECI KBKB 230840Z AUTO 00000KT 7SM FEW009 BKN014 OVC020 21/19 A2989
RMK AO2 T02110189





000
SAUS44 KSHV 230834
MTRAQV
SPECI KAQV 230833Z AUTO 00000KT 5SM BR BKN010 19/18 A2989 RMK AO2
T01940183





    US Dept of Commerce
    National Oceanic and Atmospheric Administration
    National Weather Service
    1325 East West Highway
    Silver Spring, MD 20910
    Page Author: NWS Internet Services Team
Disclaimer
Information Quality
Credits
Glossary
Privacy Policy
Freedom of Information Act (FOIA)
About Us
Career Opportunities